Time;durP1;ratioP1;P1;durP2;ratioP2;P2;SDS_P1;SDS_P2;PMS_P1;PMS_P2;Temp;Humidity;BMP_temperature;BMP_pressure;BME280_temperature;BME280_humidity;BME280_pressure;Samples;Min_cycle;Max_cycle;Signal;HPM_P1;HPM_P2
2022/07/16 00:02:38;;;;;;;;;;;21.40;61.70;;;;;;5018566;28;19925;-76
2022/07/16 00:05:05;;;;;;;;;;;21.30;61.60;;;;;;5020913;28;19925;-76
2022/07/16 00:07:32;;;;;;;;;;;21.30;61.70;;;;;;5029191;28;19978;-76
2022/07/16 00:09:59;;;;;;;;;;;21.30;61.80;;;;;;5026597;28;19929;-76
2022/07/16 00:12:25;;;;;;;;;;;21.30;61.80;;;;;;5012363;28;19936;-76
2022/07/16 00:14:52;;;;;;;;;;;21.20;61.80;;;;;;5024590;28;20331;-75
2022/07/16 00:17:19;;;;;;;;;;;21.20;61.80;;;;;;5022744;28;19932;-76
2022/07/16 00:19:47;;;;;;;;;;;21.20;61.90;;;;;;5029125;28;20307;-77
2022/07/16 00:22:13;;;;;;;;;;;21.10;61.80;;;;;;5016634;28;19936;-76
2022/07/16 00:24:40;;;;;;;;;;;21.10;61.80;;;;;;5025576;28;19940;-76
2022/07/16 00:27:07;;;;;;;;;;;21.10;61.90;;;;;;5025251;28;19977;-76
2022/07/16 00:29:34;;;;;;;;;;;21.10;62.00;;;;;;5021164;28;19930;-76
2022/07/16 00:32:01;;;;;;;;;;;;;;;;;;5022597;28;19925;-77
2022/07/16 00:34:28;;;;;;;;;;;21.00;61.40;;;;;;5019898;28;19976;-77
2022/07/16 00:36:56;;;;;;;;;;;21.00;62.00;;;;;;5020962;28;20411;-76
2022/07/16 00:39:23;;;;;;;;;;;20.90;61.90;;;;;;5018670;28;19933;-77
2022/07/16 00:41:50;;;;;;;;;;;20.90;61.90;;;;;;5023564;28;19996;-76
2022/07/16 00:44:18;;;;;;;;;;;20.90;62.00;;;;;;5025092;28;20363;-77
2022/07/16 00:46:46;;;;;;;;;;;20.80;62.00;;;;;;5021505;28;19929;-77
2022/07/16 00:49:13;;;;;;;;;;;20.80;62.00;;;;;;5018468;28;19933;-76
2022/07/16 00:51:42;;;;;;;;;;;20.80;62.00;;;;;;5021832;28;19933;-76
2022/07/16 00:54:11;;;;;;;;;;;20.80;62.10;;;;;;5030600;28;20016;-76
2022/07/16 00:56:38;;;;;;;;;;;20.80;62.30;;;;;;5026041;28;19933;-77
2022/07/16 00:59:05;;;;;;;;;;;20.70;62.10;;;;;;5015054;28;19928;-76
2022/07/16 01:01:31;;;;;;;;;;;20.70;62.20;;;;;;5037004;28;20003;-76
2022/07/16 01:03:58;;;;;;;;;;;20.60;62.20;;;;;;5026383;28;19933;-76
2022/07/16 01:06:26;;;;;;;;;;;20.60;62.20;;;;;;5029167;28;21542;-76
2022/07/16 01:08:53;;;;;;;;;;;;;;;;;;5011876;28;19932;-76
2022/07/16 01:11:21;;;;;;;;;;;20.60;61.70;;;;;;5021440;28;19963;-76
2022/07/16 01:13:48;;;;;;;;;;;;;;;;;;5026126;28;19929;-76
2022/07/16 01:16:15;;;;;;;;;;;20.50;61.70;;;;;;5021004;28;20411;-77
2022/07/16 01:18:43;;;;;;;;;;;20.50;62.30;;;;;;5024783;28;20387;-76
2022/07/16 01:21:10;;;;;;;;;;;20.50;62.50;;;;;;5019781;28;19931;-76
2022/07/16 01:23:38;;;;;;;;;;;20.40;62.30;;;;;;5043720;28;19933;-76
2022/07/16 01:26:05;;;;;;;;;;;20.40;62.30;;;;;;5022728;28;20212;-76
2022/07/16 01:28:32;;;;;;;;;;;20.30;62.20;;;;;;5022905;28;19986;-76
2022/07/16 01:30:59;;;;;;;;;;;20.30;62.30;;;;;;5020625;28;19995;-76
2022/07/16 01:33:27;;;;;;;;;;;20.30;62.20;;;;;;5007591;28;20075;-77
2022/07/16 01:35:55;;;;;;;;;;;20.30;62.40;;;;;;5021473;28;19940;-76
2022/07/16 01:38:22;;;;;;;;;;;20.20;62.40;;;;;;5022601;28;19929;-76
2022/07/16 01:40:50;;;;;;;;;;;20.20;62.30;;;;;;5018013;28;19929;-77
2022/07/16 01:43:18;;;;;;;;;;;20.20;62.40;;;;;;5017168;28;20362;-76
2022/07/16 01:45:45;;;;;;;;;;;20.10;62.40;;;;;;5017990;28;19936;-77
2022/07/16 01:48:12;;;;;;;;;;;20.10;62.40;;;;;;5013610;28;19933;-77
2022/07/16 01:50:40;;;;;;;;;;;20.10;62.30;;;;;;5025411;28;19968;-77
2022/07/16 01:53:07;;;;;;;;;;;20.00;62.30;;;;;;5022626;28;19983;-76
2022/07/16 01:55:35;;;;;;;;;;;20.00;62.30;;;;;;5016877;28;19925;-76
2022/07/16 01:58:03;;;;;;;;;;;20.00;62.40;;;;;;5019994;28;19937;-76
2022/07/16 02:00:30;;;;;;;;;;;19.90;62.30;;;;;;5019731;28;20706;-76
2022/07/16 02:02:57;;;;;;;;;;;19.90;62.30;;;;;;5023748;28;20019;-76
2022/07/16 02:05:24;;;;;;;;;;;19.90;62.30;;;;;;5021103;28;20436;-76
2022/07/16 02:07:51;;;;;;;;;;;19.80;62.20;;;;;;5011760;28;19925;-77
2022/07/16 02:10:18;;;;;;;;;;;19.80;62.00;;;;;;5023367;28;20352;-77
2022/07/16 02:12:45;;;;;;;;;;;19.80;62.10;;;;;;5024867;28;20346;-76
2022/07/16 02:15:13;;;;;;;;;;;19.70;62.30;;;;;;5021643;28;20415;-76
2022/07/16 02:17:41;;;;;;;;;;;19.70;62.40;;;;;;5023333;28;20315;-76
2022/07/16 02:20:09;;;;;;;;;;;19.70;62.50;;;;;;5024593;28;19982;-76
2022/07/16 02:22:36;;;;;;;;;;;19.70;62.50;;;;;;5024787;28;19940;-76
2022/07/16 02:25:03;;;;;;;;;;;19.60;62.40;;;;;;5031409;28;19980;-76
2022/07/16 02:27:30;;;;;;;;;;;19.60;62.50;;;;;;5021663;28;19933;-76
2022/07/16 02:29:59;;;;;;;;;;;19.60;62.40;;;;;;5030429;28;20409;-76
2022/07/16 02:32:27;;;;;;;;;;;19.50;62.40;;;;;;5026622;28;19932;-76
2022/07/16 02:34:54;;;;;;;;;;;19.50;62.40;;;;;;5022190;28;19929;-76
2022/07/16 02:37:20;;;;;;;;;;;19.50;62.60;;;;;;5019370;28;19933;-76
2022/07/16 02:39:47;;;;;;;;;;;19.40;62.40;;;;;;5030795;28;20376;-76
2022/07/16 02:42:14;;;;;;;;;;;19.40;62.50;;;;;;5026512;28;19984;-76
2022/07/16 02:44:41;;;;;;;;;;;19.40;62.50;;;;;;5018822;28;19925;-77
2022/07/16 02:47:08;;;;;;;;;;;19.40;62.60;;;;;;5042842;28;19931;-76
2022/07/16 02:49:36;;;;;;;;;;;19.30;62.50;;;;;;5016726;28;19925;-76
2022/07/16 02:52:03;;;;;;;;;;;19.30;62.50;;;;;;5024225;28;19941;-76
2022/07/16 02:54:29;;;;;;;;;;;19.30;62.60;;;;;;5018875;28;19929;-76
2022/07/16 02:56:56;;;;;;;;;;;19.30;62.60;;;;;;5014299;28;20447;-77
2022/07/16 02:59:23;;;;;;;;;;;19.20;62.60;;;;;;5027212;28;20477;-75
2022/07/16 03:01:50;;;;;;;;;;;19.20;62.60;;;;;;5027313;28;20028;-76
2022/07/16 03:04:17;;;;;;;;;;;19.20;62.60;;;;;;5017886;28;20383;-75
2022/07/16 03:06:45;;;;;;;;;;;19.20;62.60;;;;;;5017973;28;19929;-74
2022/07/16 03:09:12;;;;;;;;;;;19.10;62.60;;;;;;5023585;28;19957;-75
2022/07/16 03:11:38;;;;;;;;;;;19.10;62.70;;;;;;5031816;28;19925;-75
2022/07/16 03:14:05;;;;;;;;;;;19.10;62.70;;;;;;5019139;28;19995;-75
2022/07/16 03:16:32;;;;;;;;;;;19.00;62.60;;;;;;5021114;28;20026;-75
2022/07/16 03:18:59;;;;;;;;;;;19.00;62.60;;;;;;5029758;28;19931;-75
2022/07/16 03:21:26;;;;;;;;;;;19.00;62.70;;;;;;5019592;28;19932;-75
2022/07/16 03:23:54;;;;;;;;;;;19.00;62.70;;;;;;5018328;28;19925;-75
2022/07/16 03:26:21;;;;;;;;;;;19.00;62.60;;;;;;5024326;28;20516;-75
2022/07/16 03:28:47;;;;;;;;;;;18.90;62.70;;;;;;5009199;28;19925;-75
2022/07/16 03:31:17;;;;;;;;;;;18.90;62.60;;;;;;5024210;28;19925;-75
2022/07/16 03:33:43;;;;;;;;;;;18.90;62.70;;;;;;5020423;28;20019;-74
2022/07/16 03:36:10;;;;;;;;;;;18.80;62.70;;;;;;5010036;28;20022;-75
2022/07/16 03:41:23;;;;;;;;;;;18.80;62.90;;;;;;5045563;28;20006;-76
2022/07/16 03:43:50;;;;;;;;;;;18.80;62.90;;;;;;5026425;28;19929;-75
2022/07/16 03:46:16;;;;;;;;;;;18.70;62.70;;;;;;5021755;28;19925;-76
2022/07/16 03:48:44;;;;;;;;;;;18.70;62.70;;;;;;5020494;28;19925;-76
2022/07/16 03:51:11;;;;;;;;;;;18.70;62.80;;;;;;5022910;28;20362;-76
2022/07/16 03:53:38;;;;;;;;;;;18.70;62.90;;;;;;5026611;28;20021;-76
2022/07/16 03:56:05;;;;;;;;;;;18.60;63.50;;;;;;5022230;28;19933;-76
2022/07/16 03:58:33;;;;;;;;;;;18.60;62.90;;;;;;5025793;28;20044;-76
2022/07/16 04:01:00;;;;;;;;;;;18.60;63.00;;;;;;5026049;28;19933;-76
2022/07/16 04:03:27;;;;;;;;;;;18.50;62.80;;;;;;5028528;28;20417;-75
2022/07/16 04:05:54;;;;;;;;;;;18.50;62.80;;;;;;5019635;28;20791;-76
2022/07/16 04:08:21;;;;;;;;;;;18.50;63.00;;;;;;5027369;28;19935;-76
2022/07/16 04:10:47;;;;;;;;;;;18.40;62.40;;;;;;5025452;28;19929;-76
2022/07/16 04:13:14;;;;;;;;;;;18.30;62.80;;;;;;5020264;28;20007;-76
2022/07/16 04:15:43;;;;;;;;;;;18.20;63.00;;;;;;5032998;28;20072;-77
2022/07/16 04:18:10;;;;;;;;;;;18.10;62.90;;;;;;5032520;28;20476;-76
2022/07/16 04:20:36;;;;;;;;;;;18.00;63.10;;;;;;5017856;28;19972;-76
2022/07/16 04:23:03;;;;;;;;;;;18.00;63.20;;;;;;5017257;28;20419;-76
2022/07/16 04:25:30;;;;;;;;;;;17.90;63.30;;;;;;5022479;28;19933;-77
2022/07/16 04:27:57;;;;;;;;;;;17.90;63.40;;;;;;5022761;28;20016;-76
2022/07/16 04:30:24;;;;;;;;;;;17.90;63.50;;;;;;5021088;28;20015;-76
2022/07/16 04:32:52;;;;;;;;;;;17.80;63.60;;;;;;5017203;28;20379;-76
2022/07/16 04:35:19;;;;;;;;;;;17.80;63.80;;;;;;5023631;28;19925;-77
2022/07/16 04:37:45;;;;;;;;;;;17.70;63.90;;;;;;5021169;28;20565;-76
2022/07/16 04:40:13;;;;;;;;;;;17.70;63.90;;;;;;5029276;28;20012;-76
2022/07/16 04:42:40;;;;;;;;;;;17.70;64.10;;;;;;5014890;28;19944;-76
2022/07/16 04:45:07;;;;;;;;;;;17.70;64.20;;;;;;5023519;28;20299;-76
2022/07/16 04:47:35;;;;;;;;;;;17.60;64.20;;;;;;5029297;28;20383;-76
2022/07/16 04:50:03;;;;;;;;;;;17.60;64.30;;;;;;5013065;28;19925;-76
2022/07/16 04:52:31;;;;;;;;;;;17.50;64.40;;;;;;5024003;28;20392;-76
2022/07/16 04:54:58;;;;;;;;;;;17.50;64.50;;;;;;5023106;28;19929;-76
2022/07/16 04:57:25;;;;;;;;;;;17.50;64.60;;;;;;5026158;28;19977;-76
2022/07/16 04:59:52;;;;;;;;;;;17.50;65.50;;;;;;5008804;28;20016;-76
2022/07/16 05:05:06;;;;;;;;;;;17.40;64.90;;;;;;5042278;28;19929;-76
2022/07/16 05:07:33;;;;;;;;;;;17.40;65.20;;;;;;5013797;28;19926;-76
2022/07/16 05:09:59;;;;;;;;;;;17.40;65.20;;;;;;5016168;28;20354;-77
2022/07/16 05:12:26;;;;;;;;;;;17.40;65.30;;;;;;5022947;28;20012;-76
2022/07/16 05:14:53;;;;;;;;;;;17.40;65.50;;;;;;5027738;28;20358;-76
2022/07/16 05:17:20;;;;;;;;;;;17.30;65.50;;;;;;5018330;28;20346;-76
2022/07/16 05:19:47;;;;;;;;;;;17.40;65.70;;;;;;5032703;28;20102;-76
2022/07/16 05:22:15;;;;;;;;;;;17.40;65.70;;;;;;5028450;28;21260;-76
2022/07/16 05:24:42;;;;;;;;;;;17.40;65.90;;;;;;5020412;28;20071;-76
2022/07/16 05:27:09;;;;;;;;;;;17.40;66.00;;;;;;5019274;28;19937;-76
2022/07/16 05:29:35;;;;;;;;;;;17.40;66.10;;;;;;5021347;28;20422;-76
2022/07/16 05:32:02;;;;;;;;;;;17.40;66.20;;;;;;5011698;28;19948;-76
2022/07/16 05:34:29;;;;;;;;;;;17.40;66.20;;;;;;5015423;28;20457;-77
2022/07/16 05:36:56;;;;;;;;;;;17.40;66.20;;;;;;5010890;28;20475;-76
2022/07/16 05:39:25;;;;;;;;;;;17.40;66.30;;;;;;5015115;28;19925;-76
2022/07/16 05:41:52;;;;;;;;;;;17.40;66.40;;;;;;5015253;28;19926;-76
2022/07/16 05:44:18;;;;;;;;;;;17.40;66.40;;;;;;5014420;28;20477;-76
2022/07/16 05:46:45;;;;;;;;;;;17.40;67.20;;;;;;5015216;28;19937;-76
2022/07/16 05:49:12;;;;;;;;;;;17.40;66.70;;;;;;5012494;28;19955;-76
2022/07/16 05:51:39;;;;;;;;;;;17.50;66.70;;;;;;5008540;28;20684;-77
2022/07/16 05:54:06;;;;;;;;;;;17.50;66.80;;;;;;5020669;28;21263;-77
2022/07/16 05:56:34;;;;;;;;;;;17.50;66.70;;;;;;5015241;28;20375;-76
2022/07/16 05:59:02;;;;;;;;;;;17.50;66.70;;;;;;5019750;28;20354;-76
2022/07/16 06:01:29;;;;;;;;;;;17.50;66.60;;;;;;5018102;28;20033;-76
2022/07/16 06:03:56;;;;;;;;;;;17.60;66.70;;;;;;5015913;28;20020;-76
2022/07/16 06:06:23;;;;;;;;;;;17.60;66.80;;;;;;5020072;28;19939;-76
2022/07/16 06:08:50;;;;;;;;;;;17.60;66.90;;;;;;5016019;28;19933;-76
2022/07/16 06:11:17;;;;;;;;;;;17.60;67.00;;;;;;5016625;28;19929;-76
2022/07/16 06:13:45;;;;;;;;;;;17.60;67.00;;;;;;5021880;28;19951;-76
2022/07/16 06:16:12;;;;;;;;;;;17.60;67.00;;;;;;5009873;28;20303;-76
2022/07/16 06:18:39;;;;;;;;;;;17.70;67.00;;;;;;5021964;28;20836;-76
2022/07/16 06:21:06;;;;;;;;;;;17.70;66.90;;;;;;5001729;28;19941;-76
2022/07/16 06:23:33;;;;;;;;;;;17.70;66.90;;;;;;5014832;28;20714;-75
2022/07/16 06:25:59;;;;;;;;;;;17.70;66.70;;;;;;5024380;28;19933;-75
2022/07/16 06:28:26;;;;;;;;;;;17.70;66.90;;;;;;5013830;28;20364;-75
2022/07/16 06:30:54;;;;;;;;;;;17.80;66.80;;;;;;5011022;28;20357;-76
2022/07/16 06:33:21;;;;;;;;;;;17.80;66.90;;;;;;5023094;28;19929;-75
2022/07/16 06:35:48;;;;;;;;;;;17.80;66.90;;;;;;5020469;28;19987;-75
2022/07/16 06:38:15;;;;;;;;;;;17.90;67.00;;;;;;5013763;28;19926;-74
2022/07/16 06:40:43;;;;;;;;;;;17.90;66.80;;;;;;5008166;28;21352;-76
2022/07/16 06:43:10;;;;;;;;;;;17.90;67.40;;;;;;5012828;28;20094;-75
2022/07/16 06:45:38;;;;;;;;;;;18.00;67.00;;;;;;5011013;28;19929;-75
2022/07/16 06:48:06;;;;;;;;;;;18.00;67.00;;;;;;5015958;28;19933;-74
2022/07/16 06:50:33;;;;;;;;;;;18.00;67.00;;;;;;5017868;28;19933;-75
2022/07/16 06:53:00;;;;;;;;;;;18.00;67.00;;;;;;5017104;28;19933;-75
2022/07/16 06:55:27;;;;;;;;;;;18.10;67.10;;;;;;5015833;28;20023;-75
2022/07/16 06:57:53;;;;;;;;;;;18.10;67.10;;;;;;5019448;28;19969;-75
2022/07/16 07:00:20;;;;;;;;;;;18.10;67.20;;;;;;5012960;28;19941;-76
2022/07/16 07:02:47;;;;;;;;;;;18.10;67.30;;;;;;5036492;28;20022;-76
2022/07/16 07:05:15;;;;;;;;;;;18.10;67.30;;;;;;5041432;28;20333;-76
2022/07/16 07:07:42;;;;;;;;;;;18.10;67.50;;;;;;5015773;28;20009;-76
2022/07/16 07:10:10;;;;;;;;;;;18.20;67.60;;;;;;5037720;28;19929;-76
2022/07/16 07:12:36;;;;;;;;;;;18.20;67.60;;;;;;5022083;28;19928;-77
2022/07/16 07:15:04;;;;;;;;;;;18.20;67.60;;;;;;5016426;28;19939;-76
2022/07/16 07:17:31;;;;;;;;;;;18.20;67.60;;;;;;5012886;28;19932;-76
2022/07/16 07:19:57;;;;;;;;;;;18.30;68.60;;;;;;5000562;28;20040;-77
2022/07/16 07:22:26;;;;;;;;;;;18.40;67.80;;;;;;5020957;28;19925;-77
2022/07/16 07:24:52;;;;;;;;;;;18.40;67.80;;;;;;5017441;28;20015;-78
2022/07/16 07:27:19;;;;;;;;;;;18.50;68.00;;;;;;5026076;28;19925;-76
2022/07/16 07:29:46;;;;;;;;;;;18.50;68.00;;;;;;5015150;28;19929;-77
2022/07/16 07:32:14;;;;;;;;;;;18.50;67.90;;;;;;5016684;28;20405;-77
2022/07/16 07:34:41;;;;;;;;;;;18.50;67.90;;;;;;5009702;28;20031;-76
2022/07/16 07:37:08;;;;;;;;;;;18.50;67.70;;;;;;5011307;28;19940;-75
2022/07/16 07:39:36;;;;;;;;;;;18.50;67.60;;;;;;4995996;28;20553;-80
2022/07/16 07:42:03;;;;;;;;;;;18.50;67.80;;;;;;5001304;28;19945;-76
2022/07/16 07:44:30;;;;;;;;;;;18.50;68.30;;;;;;5016807;28;19941;-77
2022/07/16 07:46:57;;;;;;;;;;;18.70;68.30;;;;;;5008460;28;19999;-74
2022/07/16 07:49:24;;;;;;;;;;;18.80;68.30;;;;;;5010061;28;19929;-75
2022/07/16 07:51:51;;;;;;;;;;;18.80;67.30;;;;;;5018750;28;19940;-75
2022/07/16 07:54:19;;;;;;;;;;;18.90;67.40;;;;;;4986868;28;19957;-76
2022/07/16 07:56:49;;;;;;;;;;;18.90;67.10;;;;;;5024982;28;20040;-75
2022/07/16 07:59:16;;;;;;;;;;;19.00;66.40;;;;;;5017987;28;19929;-75
2022/07/16 08:01:44;;;;;;;;;;;19.00;65.60;;;;;;5019610;28;19940;-75
2022/07/16 08:04:10;;;;;;;;;;;19.10;65.20;;;;;;5013906;28;19939;-75
2022/07/16 08:06:37;;;;;;;;;;;19.20;65.70;;;;;;5009456;28;19929;-75
2022/07/16 08:09:04;;;;;;;;;;;19.10;65.40;;;;;;5014778;28;19994;-76
2022/07/16 08:11:31;;;;;;;;;;;19.10;66.10;;;;;;5018126;28;22407;-75
2022/07/16 08:14:00;;;;;;;;;;;19.20;65.80;;;;;;5005265;28;20046;-75
2022/07/16 08:16:27;;;;;;;;;;;19.10;65.40;;;;;;5021597;28;20390;-75
2022/07/16 08:18:54;;;;;;;;;;;19.10;65.30;;;;;;4997117;28;19933;-76
2022/07/16 08:21:21;;;;;;;;;;;19.10;65.20;;;;;;5029469;28;19929;-76
2022/07/16 08:26:32;;;;;;;;;;;19.20;65.10;;;;;;5012194;28;19925;-74
2022/07/16 08:29:00;;;;;;;;;;;19.30;65.00;;;;;;4987796;28;20050;-76
2022/07/16 08:31:27;;;;;;;;;;;19.20;65.10;;;;;;5009201;28;20028;-76
2022/07/16 08:33:54;;;;;;;;;;;19.20;66.00;;;;;;5004580;28;20971;-75
2022/07/16 08:36:21;;;;;;;;;;;19.20;65.70;;;;;;5012899;28;20431;-76
2022/07/16 08:38:48;;;;;;;;;;;19.30;65.30;;;;;;5029944;28;19944;-76
2022/07/16 08:41:15;;;;;;;;;;;19.20;65.30;;;;;;5019614;28;19939;-75
2022/07/16 08:43:42;;;;;;;;;;;19.30;65.40;;;;;;5006683;28;20022;-76
2022/07/16 08:46:11;;;;;;;;;;;19.30;65.60;;;;;;5013942;28;20047;-77
2022/07/16 08:48:38;;;;;;;;;;;19.40;65.60;;;;;;5024992;28;19925;-76
2022/07/16 08:51:09;;;;;;;;;;;19.40;65.30;;;;;;5015603;28;20423;-76
2022/07/16 08:53:36;;;;;;;;;;;19.30;65.40;;;;;;5007479;28;19940;-76
2022/07/16 08:56:04;;;;;;;;;;;19.30;66.20;;;;;;5010112;28;19940;-76
2022/07/16 08:58:31;;;;;;;;;;;19.30;65.70;;;;;;5015951;28;20359;-76
2022/07/16 09:00:59;;;;;;;;;;;19.30;65.70;;;;;;5015554;28;20384;-75
2022/07/16 09:03:27;;;;;;;;;;;19.30;65.80;;;;;;5029160;28;20069;-75
2022/07/16 09:05:54;;;;;;;;;;;19.30;66.00;;;;;;5015481;28;20592;-76
2022/07/16 09:08:21;;;;;;;;;;;19.30;66.00;;;;;;5019153;28;19933;-76
2022/07/16 09:10:47;;;;;;;;;;;19.30;66.00;;;;;;5019078;28;20462;-76
2022/07/16 09:13:14;;;;;;;;;;;19.30;66.10;;;;;;5023836;28;19933;-76
2022/07/16 09:15:42;;;;;;;;;;;19.30;66.00;;;;;;5014814;28;19925;-76
2022/07/16 09:18:10;;;;;;;;;;;19.30;66.00;;;;;;5018808;28;19936;-77
2022/07/16 09:20:39;;;;;;;;;;;19.30;66.00;;;;;;5020586;28;19979;-77
2022/07/16 09:23:16;;;;;;;;;;;19.30;65.30;;;;;;5016739;28;20406;-77
2022/07/16 09:25:47;;;;;;;;;;;19.50;64.90;;;;;;5012764;28;19929;-76
2022/07/16 09:28:14;;;;;;;;;;;19.60;64.20;;;;;;5005314;28;19929;-76
2022/07/16 09:30:41;;;;;;;;;;;19.50;64.50;;;;;;5009472;28;19925;-77
2022/07/16 09:33:12;;;;;;;;;;;19.40;64.70;;;;;;5015743;28;19929;-76
2022/07/16 09:35:40;;;;;;;;;;;19.40;64.90;;;;;;5001977;28;19937;-76
2022/07/16 09:38:09;;;;;;;;;;;19.40;64.90;;;;;;5015107;28;20019;-77
2022/07/16 09:40:37;;;;;;;;;;;19.40;65.00;;;;;;5017614;28;19933;-76
2022/07/16 09:43:05;;;;;;;;;;;19.40;65.20;;;;;;5012066;28;20345;-75
2022/07/16 09:45:32;;;;;;;;;;;19.40;65.00;;;;;;5023277;28;19936;-75
2022/07/16 09:47:59;;;;;;;;;;;19.40;65.20;;;;;;5016359;28;20296;-74
2022/07/16 09:50:35;;;;;;;;;;;19.40;65.10;;;;;;5015887;28;19932;-74
2022/07/16 09:53:14;;;;;;;;;;;19.50;65.20;;;;;;5014458;28;19925;-74
2022/07/16 09:55:54;;;;;;;;;;;19.40;65.20;;;;;;5013389;28;19926;-74
2022/07/16 09:58:20;;;;;;;;;;;19.40;65.10;;;;;;5016333;28;20295;-73
2022/07/16 10:00:47;;;;;;;;;;;19.40;64.50;;;;;;5021037;28;19925;-74
2022/07/16 10:03:15;;;;;;;;;;;19.40;64.80;;;;;;5022078;28;19933;-75
2022/07/16 10:05:42;;;;;;;;;;;19.40;64.50;;;;;;5019064;28;19936;-76
2022/07/16 10:08:08;;;;;;;;;;;19.40;64.70;;;;;;5015382;28;19925;-75
2022/07/16 10:10:37;;;;;;;;;;;19.40;65.30;;;;;;5013968;28;19936;-72
2022/07/16 10:13:04;;;;;;;;;;;19.40;65.40;;;;;;5009619;28;20015;-74
2022/07/16 10:15:31;;;;;;;;;;;19.40;65.20;;;;;;5021547;28;19933;-73
2022/07/16 10:17:58;;;;;;;;;;;19.40;65.50;;;;;;5019163;28;20379;-76
2022/07/16 10:20:25;;;;;;;;;;;19.40;65.10;;;;;;5016767;28;20379;-76
2022/07/16 10:22:52;;;;;;;;;;;19.40;65.10;;;;;;5015365;28;19990;-78
2022/07/16 10:25:20;;;;;;;;;;;19.50;65.20;;;;;;5019222;28;19933;-76
2022/07/16 10:27:49;;;;;;;;;;;19.40;64.90;;;;;;5023059;28;20019;-75
2022/07/16 10:30:18;;;;;;;;;;;19.40;64.90;;;;;;5015649;28;19944;-77
2022/07/16 10:33:06;;;;;;;;;;;19.40;65.10;;;;;;5015577;28;19936;-76
2022/07/16 10:35:34;;;;;;;;;;;19.50;65.30;;;;;;5017198;28;20375;-76
2022/07/16 10:38:04;;;;;;;;;;;19.50;65.30;;;;;;5018573;28;19928;-76
2022/07/16 10:40:31;;;;;;;;;;;19.50;64.70;;;;;;5015679;28;19938;-75
2022/07/16 10:43:11;;;;;;;;;;;19.50;64.60;;;;;;5018675;28;19931;-76
2022/07/16 10:45:55;;;;;;;;;;;19.50;65.20;;;;;;5021695;28;19937;-75
2022/07/16 10:48:23;;;;;;;;;;;19.50;65.20;;;;;;5026365;28;19932;-76
2022/07/16 10:51:08;;;;;;;;;;;19.50;65.10;;;;;;5019577;28;19967;-75
2022/07/16 10:53:50;;;;;;;;;;;19.50;64.70;;;;;;5020975;28;19936;-77
2022/07/16 10:56:32;;;;;;;;;;;19.50;64.20;;;;;;5020391;28;19933;-75
2022/07/16 10:59:01;;;;;;;;;;;19.50;64.10;;;;;;5016373;28;20549;-75
2022/07/16 11:01:29;;;;;;;;;;;19.50;63.80;;;;;;5018044;28;20047;-76
2022/07/16 11:03:56;;;;;;;;;;;19.60;64.20;;;;;;5020744;28;19932;-76
2022/07/16 11:06:23;;;;;;;;;;;19.60;64.10;;;;;;5021413;28;20035;-76
2022/07/16 11:08:52;;;;;;;;;;;19.60;64.20;;;;;;5027199;28;20775;-77
2022/07/16 11:11:19;;;;;;;;;;;19.60;64.90;;;;;;5016914;28;19933;-77
2022/07/16 11:13:47;;;;;;;;;;;19.60;64.30;;;;;;5014172;28;19953;-76
2022/07/16 11:16:15;;;;;;;;;;;19.60;64.70;;;;;;5015196;28;19934;-78
2022/07/16 11:18:42;;;;;;;;;;;19.60;64.40;;;;;;5013742;28;20378;-76
2022/07/16 11:21:09;;;;;;;;;;;19.70;64.50;;;;;;5009716;28;19932;-75
2022/07/16 11:23:47;;;;;;;;;;;19.90;63.90;;;;;;5017398;28;20117;-75
2022/07/16 11:26:16;;;;;;;;;;;19.90;63.80;;;;;;5033068;28;19969;-76
2022/07/16 11:28:52;;;;;;;;;;;19.90;64.20;;;;;;5032562;28;20013;-75
2022/07/16 11:31:25;;;;;;;;;;;19.80;64.30;;;;;;5026676;28;19978;-75
2022/07/16 11:33:53;;;;;;;;;;;19.80;64.00;;;;;;5029437;28;19938;-75
2022/07/16 11:36:20;;;;;;;;;;;19.80;64.10;;;;;;5029494;28;19925;-75
2022/07/16 11:38:47;;;;;;;;;;;19.80;64.30;;;;;;5029399;28;19925;-76
2022/07/16 11:41:14;;;;;;;;;;;19.90;64.10;;;;;;5025062;28;19972;-76
2022/07/16 11:43:42;;;;;;;;;;;19.90;64.00;;;;;;5028304;28;20052;-75
2022/07/16 11:46:20;;;;;;;;;;;19.90;63.80;;;;;;5026981;28;19961;-75
2022/07/16 11:48:48;;;;;;;;;;;19.90;64.20;;;;;;5028522;28;19925;-76
2022/07/16 11:51:15;;;;;;;;;;;20.00;64.00;;;;;;5026672;28;19933;-75
2022/07/16 11:53:42;;;;;;;;;;;20.00;63.60;;;;;;5025419;28;19964;-75
2022/07/16 11:56:10;;;;;;;;;;;20.00;63.50;;;;;;5028167;28;19979;-75
2022/07/16 11:58:37;;;;;;;;;;;20.10;63.50;;;;;;5022336;28;19925;-75
2022/07/16 12:01:04;;;;;;;;;;;20.10;63.70;;;;;;5042932;28;19947;-76
2022/07/16 12:03:31;;;;;;;;;;;20.20;63.60;;;;;;5030522;28;19992;-77
2022/07/16 12:06:03;;;;;;;;;;;20.20;63.60;;;;;;5046063;28;19925;-76
2022/07/16 12:08:32;;;;;;;;;;;20.20;63.80;;;;;;5024481;28;19925;-76
2022/07/16 12:11:02;;;;;;;;;;;20.20;64.20;;;;;;5021889;28;19925;-77
2022/07/16 12:13:29;;;;;;;;;;;20.20;64.40;;;;;;5024354;28;20460;-77
2022/07/16 12:15:56;;;;;;;;;;;20.20;65.00;;;;;;5044392;28;19987;-76
2022/07/16 12:18:24;;;;;;;;;;;20.30;64.70;;;;;;5030198;28;19932;-77
2022/07/16 12:20:51;;;;;;;;;;;20.30;64.80;;;;;;5028021;28;19925;-76
2022/07/16 12:23:32;;;;;;;;;;;20.40;64.00;;;;;;5023400;28;19925;-77
2022/07/16 12:26:03;;;;;;;;;;;20.40;63.70;;;;;;5026930;28;20448;-77
2022/07/16 12:28:31;;;;;;;;;;;20.60;62.90;;;;;;5023964;28;19933;-75
2022/07/16 12:31:00;;;;;;;;;;;20.70;63.00;;;;;;5032174;28;19932;-77
2022/07/16 12:33:28;;;;;;;;;;;20.70;63.30;;;;;;5035962;28;19959;-76
2022/07/16 12:35:59;;;;;;;;;;;20.70;63.50;;;;;;5028562;28;19973;-76
2022/07/16 12:38:40;;;;;;;;;;;20.80;62.80;;;;;;5105142;22;21808;-76
2022/07/16 12:41:08;;;;;;;;;;;20.80;63.20;;;;;;5068540;28;21955;-77
2022/07/16 12:43:35;;;;;;;;;;;20.90;63.60;;;;;;5044755;28;19967;-76
2022/07/16 12:46:03;;;;;;;;;;;20.90;63.60;;;;;;5053860;28;19925;-75
2022/07/16 12:48:30;;;;;;;;;;;21.00;63.80;;;;;;5041783;28;19947;-76
2022/07/16 12:50:57;;;;;;;;;;;21.00;63.60;;;;;;5044985;28;20092;-76
2022/07/16 12:53:24;;;;;;;;;;;21.10;62.50;;;;;;5047012;28;19971;-76
2022/07/16 12:58:48;;;;;;;;;;;21.20;62.50;;;;;;5042199;28;20400;-75
2022/07/16 13:01:17;;;;;;;;;;;21.30;62.40;;;;;;5042401;28;20514;-76
2022/07/16 13:03:44;;;;;;;;;;;21.30;63.00;;;;;;5047499;28;19924;-76
2022/07/16 13:06:10;;;;;;;;;;;21.40;62.40;;;;;;5049581;28;19968;-76
2022/07/16 13:08:37;;;;;;;;;;;21.40;62.40;;;;;;5036487;28;20407;-76
2022/07/16 13:11:06;;;;;;;;;;;21.40;62.40;;;;;;5052582;28;19931;-77
2022/07/16 13:13:34;;;;;;;;;;;21.50;62.70;;;;;;5042661;28;19935;-77
2022/07/16 13:16:01;;;;;;;;;;;21.50;62.70;;;;;;5046395;28;19924;-77
2022/07/16 13:18:28;;;;;;;;;;;;;;;;;;5060278;28;19934;-77
2022/07/16 13:20:55;;;;;;;;;;;21.70;61.50;;;;;;5046780;28;19978;-76
2022/07/16 13:23:22;;;;;;;;;;;21.80;62.20;;;;;;5046290;28;19967;-76
2022/07/16 13:25:49;;;;;;;;;;;21.80;62.10;;;;;;5044899;28;19963;-77
2022/07/16 13:28:18;;;;;;;;;;;21.90;62.00;;;;;;5046228;28;19931;-77
2022/07/16 13:30:45;;;;;;;;;;;21.90;62.50;;;;;;5039511;28;19931;-77
2022/07/16 13:33:12;;;;;;;;;;;21.90;62.60;;;;;;5047305;28;19983;-76
2022/07/16 13:35:39;;;;;;;;;;;22.00;62.20;;;;;;5046331;28;19929;-77
2022/07/16 13:38:06;;;;;;;;;;;22.10;61.70;;;;;;5044038;28;20302;-77
2022/07/16 13:40:32;;;;;;;;;;;22.10;61.80;;;;;;5047586;28;19933;-76
2022/07/16 13:42:59;;;;;;;;;;;22.10;61.90;;;;;;5043529;28;19968;-76
2022/07/16 13:45:28;;;;;;;;;;;22.20;62.10;;;;;;5044815;28;19983;-77
2022/07/16 13:47:55;;;;;;;;;;;22.20;61.80;;;;;;5048633;28;19924;-76
2022/07/16 13:50:22;;;;;;;;;;;22.30;61.80;;;;;;5047758;28;19929;-78
2022/07/16 13:52:49;;;;;;;;;;;22.40;61.60;;;;;;5048219;28;19964;-77
2022/07/16 13:55:17;;;;;;;;;;;22.40;61.40;;;;;;5035977;28;19925;-77
2022/07/16 14:00:30;;;;;;;;;;;22.50;60.90;;;;;;5044119;28;20017;-77
2022/07/16 14:02:57;;;;;;;;;;;22.50;60.90;;;;;;5043618;28;20032;-76
2022/07/16 14:05:24;;;;;;;;;;;22.60;60.40;;;;;;5035507;28;19972;-75
2022/07/16 14:07:51;;;;;;;;;;;22.60;60.60;;;;;;5046571;28;19924;-77
2022/07/16 14:10:18;;;;;;;;;;;22.70;60.70;;;;;;5042711;28;20014;-77
2022/07/16 14:12:45;;;;;;;;;;;22.70;61.30;;;;;;5047528;28;20042;-78
2022/07/16 14:15:13;;;;;;;;;;;22.70;61.10;;;;;;5049148;28;19954;-78
2022/07/16 14:17:41;;;;;;;;;;;22.80;60.70;;;;;;5038923;28;19925;-76
2022/07/16 14:20:09;;;;;;;;;;;22.80;60.10;;;;;;5046947;28;19975;-78
2022/07/16 14:22:36;;;;;;;;;;;22.90;60.60;;;;;;5041580;28;19929;-77
2022/07/16 14:25:04;;;;;;;;;;;23.00;60.10;;;;;;5047761;28;19932;-76
2022/07/16 14:27:30;;;;;;;;;;;23.00;60.10;;;;;;5051421;28;20564;-77
2022/07/16 14:29:57;;;;;;;;;;;23.00;59.80;;;;;;5042698;28;20394;-75
2022/07/16 14:32:24;;;;;;;;;;;23.10;59.80;;;;;;5043481;28;19932;-76
2022/07/16 14:34:53;;;;;;;;;;;23.20;59.40;;;;;;5050171;28;19987;-77
2022/07/16 14:37:19;;;;;;;;;;;23.20;60.20;;;;;;5049727;28;19924;-76